sensor_id;sensor_type;location;lat;lon;timestamp;pressure;altitude;pressure_sealevel;temperature;humidity
53908;BME280;40469;47.998;7.794;2023-02-18T00:01:02;100196.53;;;10.58;100.00
53908;BME280;40469;47.998;7.794;2023-02-18T00:03:28;100192.13;;;10.52;100.00
53908;BME280;40469;47.998;7.794;2023-02-18T00:05:54;100199.19;;;10.62;100.00
53908;BME280;40469;47.998;7.794;2023-02-18T00:08:20;100196.47;;;10.50;100.00
53908;BME280;40469;47.998;7.794;2023-02-18T00:10:45;100185.13;;;10.50;100.00
53908;BME280;40469;47.998;7.794;2023-02-18T00:13:10;100179.91;;;10.50;100.00
53908;BME280;40469;47.998;7.794;2023-02-18T00:15:36;100183.44;;;10.55;100.00
53908;BME280;40469;47.998;7.794;2023-02-18T00:18:02;100186.03;;;10.52;100.00
53908;BME280;40469;47.998;7.794;2023-02-18T00:20:27;100201.69;;;10.50;100.00
53908;BME280;40469;47.998;7.794;2023-02-18T00:22:52;100191.09;;;10.36;100.00
53908;BME280;40469;47.998;7.794;2023-02-18T00:25:18;100191.22;;;10.49;100.00
53908;BME280;40469;47.998;7.794;2023-02-18T00:27:43;100185.06;;;10.43;100.00
53908;BME280;40469;47.998;7.794;2023-02-18T00:30:08;100178.91;;;10.38;100.00
53908;BME280;40469;47.998;7.794;2023-02-18T00:32:34;100179.81;;;10.42;100.00
53908;BME280;40469;47.998;7.794;2023-02-18T00:35:02;100169.44;;;10.45;100.00
53908;BME280;40469;47.998;7.794;2023-02-18T00:37:28;100179.84;;;10.43;100.00
53908;BME280;40469;47.998;7.794;2023-02-18T00:39:53;100172.06;;;10.51;100.00
53908;BME280;40469;47.998;7.794;2023-02-18T00:42:18;100171.22;;;10.51;100.00
53908;BME280;40469;47.998;7.794;2023-02-18T00:44:43;100166.84;;;10.50;100.00
53908;BME280;40469;47.998;7.794;2023-02-18T00:47:09;100160.72;;;10.48;100.00
53908;BME280;40469;47.998;7.794;2023-02-18T00:49:34;100154.69;;;10.52;100.00
53908;BME280;40469;47.998;7.794;2023-02-18T00:51:59;100156.41;;;10.51;100.00
53908;BME280;40469;47.998;7.794;2023-02-18T00:54:24;100156.41;;;10.51;100.00
53908;BME280;40469;47.998;7.794;2023-02-18T00:56:50;100149.53;;;10.59;100.00
53908;BME280;40469;47.998;7.794;2023-02-18T00:59:15;100152.06;;;10.49;100.00
53908;BME280;40469;47.998;7.794;2023-02-18T01:01:40;100146.75;;;10.42;100.00
53908;BME280;40469;47.998;7.794;2023-02-18T01:04:05;100152.06;;;10.49;100.00
53908;BME280;40469;47.998;7.794;2023-02-18T01:06:31;100141.63;;;10.50;100.00
53908;BME280;40469;47.998;7.794;2023-02-18T01:08:56;100140.72;;;10.47;100.00
53908;BME280;40469;47.998;7.794;2023-02-18T01:11:21;100139.81;;;10.43;100.00
53908;BME280;40469;47.998;7.794;2023-02-18T01:13:52;100138.00;;;10.37;100.00
53908;BME280;40469;47.998;7.794;2023-02-18T01:16:17;100143.25;;;10.40;100.00
53908;BME280;40469;47.998;7.794;2023-02-18T01:18:42;100145.94;;;10.47;100.00
53908;BME280;40469;47.998;7.794;2023-02-18T01:21:08;100143.34;;;10.51;100.00
53908;BME280;40469;47.998;7.794;2023-02-18T01:23:34;100145.94;;;10.47;100.00
53908;BME280;40469;47.998;7.794;2023-02-18T01:25:59;100145.03;;;10.44;100.00
53908;BME280;40469;47.998;7.794;2023-02-18T01:28:24;100147.66;;;10.46;100.00
53908;BME280;40469;47.998;7.794;2023-02-18T01:30:51;100144.13;;;10.38;100.00
53908;BME280;40469;47.998;7.794;2023-02-18T01:33:16;100133.72;;;10.44;100.00
53908;BME280;40469;47.998;7.794;2023-02-18T01:35:42;100145.09;;;10.49;100.00
53908;BME280;40469;47.998;7.794;2023-02-18T01:38:07;100132.00;;;10.46;100.00
53908;BME280;40469;47.998;7.794;2023-02-18T01:40:33;100134.63;;;10.49;100.00
53908;BME280;40469;47.998;7.794;2023-02-18T01:42:58;100135.47;;;10.43;100.00
53908;BME280;40469;47.998;7.794;2023-02-18T01:48:03;100124.22;;;10.52;100.00
53908;BME280;40469;47.998;7.794;2023-02-18T01:50:29;100129.50;;;10.55;100.00
53908;BME280;40469;47.998;7.794;2023-02-18T01:52:55;100125.16;;;10.59;100.00
53908;BME280;40469;47.998;7.794;2023-02-18T01:55:20;100118.22;;;10.64;100.00
53908;BME280;40469;47.998;7.794;2023-02-18T01:57:45;100126.06;;;10.61;100.00
53908;BME280;40469;47.998;7.794;2023-02-18T02:00:12;100126.06;;;10.64;100.00
53908;BME280;40469;47.998;7.794;2023-02-18T02:02:39;100121.78;;;10.74;100.00
53908;BME280;40469;47.998;7.794;2023-02-18T02:05:06;100127.81;;;10.63;100.00
53908;BME280;40469;47.998;7.794;2023-02-18T02:07:31;100118.31;;;10.73;100.00
53908;BME280;40469;47.998;7.794;2023-02-18T02:09:57;100117.41;;;10.73;100.00
53908;BME280;40469;47.998;7.794;2023-02-18T02:12:42;100107.88;;;10.75;100.00
53908;BME280;40469;47.998;7.794;2023-02-18T02:25:46;100102.66;;;10.78;100.00
53908;BME280;40469;47.998;7.794;2023-02-18T02:28:55;100100.06;;;10.81;100.00
53908;BME280;40469;47.998;7.794;2023-02-18T02:31:32;100098.34;;;10.80;100.00
53908;BME280;40469;47.998;7.794;2023-02-18T02:36:44;100095.72;;;10.78;100.00
53908;BME280;40469;47.998;7.794;2023-02-18T02:39:17;100097.50;;;10.86;100.00
53908;BME280;40469;47.998;7.794;2023-02-18T02:44:37;100094.03;;;10.87;100.00
53908;BME280;40469;47.998;7.794;2023-02-18T02:47:07;100094.84;;;10.79;100.00
53908;BME280;40469;47.998;7.794;2023-02-18T02:52:39;100083.47;;;10.74;100.00
53908;BME280;40469;47.998;7.794;2023-02-18T02:55:11;100079.94;;;10.69;100.00
53908;BME280;40469;47.998;7.794;2023-02-18T02:57:41;100093.91;;;10.73;100.00
53908;BME280;40469;47.998;7.794;2023-02-18T03:00:07;100089.59;;;10.75;100.00
53908;BME280;40469;47.998;7.794;2023-02-18T03:12:29;100062.63;;;10.80;100.00
53908;BME280;40469;47.998;7.794;2023-02-18T03:15:01;100065.22;;;10.76;100.00
53908;BME280;40469;47.998;7.794;2023-02-18T03:17:29;100064.34;;;10.75;100.00
53908;BME280;40469;47.998;7.794;2023-02-18T03:19:56;100064.34;;;10.75;100.00
53908;BME280;40469;47.998;7.794;2023-02-18T03:22:30;100068.75;;;10.84;100.00
53908;BME280;40469;47.998;7.794;2023-02-18T03:24:56;100063.56;;;10.86;100.00
53908;BME280;40469;47.998;7.794;2023-02-18T03:27:29;100058.34;;;10.87;100.00
53908;BME280;40469;47.998;7.794;2023-02-18T03:30:00;100049.56;;;10.79;100.00
53908;BME280;40469;47.998;7.794;2023-02-18T03:32:26;100040.00;;;10.82;100.00
53908;BME280;40469;47.998;7.794;2023-02-18T03:34:54;100048.69;;;10.78;100.00
53908;BME280;40469;47.998;7.794;2023-02-18T03:37:21;100053.94;;;10.78;100.00
53908;BME280;40469;47.998;7.794;2023-02-18T03:39:47;100055.63;;;10.78;100.00
53908;BME280;40469;47.998;7.794;2023-02-18T03:42:15;100054.72;;;10.73;100.00
53908;BME280;40469;47.998;7.794;2023-02-18T03:44:40;100048.63;;;10.68;100.00
53908;BME280;40469;47.998;7.794;2023-02-18T03:47:05;100046.91;;;10.74;100.00
53908;BME280;40469;47.998;7.794;2023-02-18T03:49:31;100056.47;;;10.68;100.00
53908;BME280;40469;47.998;7.794;2023-02-18T03:51:56;100052.19;;;10.79;100.00
53908;BME280;40469;47.998;7.794;2023-02-18T03:54:21;100049.59;;;10.84;100.00
53908;BME280;40469;47.998;7.794;2023-02-18T03:56:46;100050.47;;;10.82;100.00
53908;BME280;40469;47.998;7.794;2023-02-18T03:59:12;100058.25;;;10.78;100.00
53908;BME280;40469;47.998;7.794;2023-02-18T04:01:37;100053.03;;;10.79;100.00
53908;BME280;40469;47.998;7.794;2023-02-18T04:04:03;100047.00;;;10.84;100.00
53908;BME280;40469;47.998;7.794;2023-02-18T04:06:28;100045.28;;;10.92;100.00
53908;BME280;40469;47.998;7.794;2023-02-18T04:08:53;100049.59;;;10.87;100.00
53908;BME280;40469;47.998;7.794;2023-02-18T04:11:19;100038.28;;;10.86;100.00
53908;BME280;40469;47.998;7.794;2023-02-18T04:13:44;100040.03;;;10.86;100.00
53908;BME280;40469;47.998;7.794;2023-02-18T04:16:09;100035.66;;;10.80;100.00
53908;BME280;40469;47.998;7.794;2023-02-18T04:18:34;100033.94;;;10.90;100.00
53908;BME280;40469;47.998;7.794;2023-02-18T04:21:00;100033.09;;;10.91;100.00
53908;BME280;40469;47.998;7.794;2023-02-18T04:23:25;100039.97;;;10.79;100.00
53908;BME280;40469;47.998;7.794;2023-02-18T04:25:50;100048.72;;;10.85;100.00
53908;BME280;40469;47.998;7.794;2023-02-18T04:28:15;100058.34;;;10.87;100.00
53908;BME280;40469;47.998;7.794;2023-02-18T04:30:42;100053.06;;;10.82;100.00
53908;BME280;40469;47.998;7.794;2023-02-18T04:33:07;100046.13;;;10.88;100.00
53908;BME280;40469;47.998;7.794;2023-02-18T04:35:32;100039.97;;;10.79;100.00
53908;BME280;40469;47.998;7.794;2023-02-18T04:37:58;100045.22;;;10.82;100.00
53908;BME280;40469;47.998;7.794;2023-02-18T04:40:23;100035.63;;;10.81;100.00
53908;BME280;40469;47.998;7.794;2023-02-18T04:42:50;100033.03;;;10.83;100.00
53908;BME280;40469;47.998;7.794;2023-02-18T04:45:15;100035.69;;;10.86;100.00
53908;BME280;40469;47.998;7.794;2023-02-18T04:47:41;100036.56;;;10.90;100.00
53908;BME280;40469;47.998;7.794;2023-02-18T04:50:06;100040.91;;;10.92;100.00
53908;BME280;40469;47.998;7.794;2023-02-18T04:52:32;100030.53;;;10.98;100.00
53908;BME280;40469;47.998;7.794;2023-02-18T04:54:57;100034.00;;;11.00;100.00
53908;BME280;40469;47.998;7.794;2023-02-18T04:57:23;100027.88;;;10.94;100.00
53908;BME280;40469;47.998;7.794;2023-02-18T04:59:48;100018.34;;;11.00;100.00
53908;BME280;40469;47.998;7.794;2023-02-18T05:02:13;100022.69;;;11.05;100.00
53908;BME280;40469;47.998;7.794;2023-02-18T05:04:38;100009.63;;;11.05;100.00
53908;BME280;40469;47.998;7.794;2023-02-18T05:07:04;100024.44;;;10.98;100.00
53908;BME280;40469;47.998;7.794;2023-02-18T05:09:29;100027.03;;;10.96;100.00
53908;BME280;40469;47.998;7.794;2023-02-18T05:11:54;100036.63;;;11.02;100.00
53908;BME280;40469;47.998;7.794;2023-02-18T05:14:19;100039.22;;;10.96;100.00
53908;BME280;40469;47.998;7.794;2023-02-18T05:16:45;100033.09;;;10.92;100.00
53908;BME280;40469;47.998;7.794;2023-02-18T05:19:12;100044.38;;;10.88;100.00
53908;BME280;40469;47.998;7.794;2023-02-18T05:21:38;100036.56;;;10.90;100.00
53908;BME280;40469;47.998;7.794;2023-02-18T05:24:03;100039.13;;;10.82;100.00
53908;BME280;40469;47.998;7.794;2023-02-18T05:26:29;100027.81;;;10.80;100.00
53908;BME280;40469;47.998;7.794;2023-02-18T05:28:54;100028.63;;;10.76;100.00
53908;BME280;40469;47.998;7.794;2023-02-18T05:31:19;100026.91;;;10.78;100.00
53908;BME280;40469;47.998;7.794;2023-02-18T05:33:44;100022.53;;;10.74;100.00
53908;BME280;40469;47.998;7.794;2023-02-18T05:36:10;100019.03;;;10.70;100.00
53908;BME280;40469;47.998;7.794;2023-02-18T05:38:35;100018.09;;;10.62;100.00
53908;BME280;40469;47.998;7.794;2023-02-18T05:41:01;100018.16;;;10.68;100.00
53908;BME280;40469;47.998;7.794;2023-02-18T05:43:26;100012.88;;;10.63;100.00
53908;BME280;40469;47.998;7.794;2023-02-18T05:45:51;100005.91;;;10.64;100.00
53908;BME280;40469;47.998;7.794;2023-02-18T05:48:16;100012.03;;;10.65;100.00
53908;BME280;40469;47.998;7.794;2023-02-18T05:50:42;100014.66;;;10.65;100.00
53908;BME280;40469;47.998;7.794;2023-02-18T05:53:07;100019.84;;;10.61;100.00
53908;BME280;40469;47.998;7.794;2023-02-18T05:55:32;100007.69;;;10.68;100.00
53908;BME280;40469;47.998;7.794;2023-02-18T05:58:03;100013.75;;;10.66;100.00
53908;BME280;40469;47.998;7.794;2023-02-18T06:00:28;100012.94;;;10.74;100.00
53908;BME280;40469;47.998;7.794;2023-02-18T06:02:55;100012.03;;;10.66;100.00
53908;BME280;40469;47.998;7.794;2023-02-18T06:05:21;100018.19;;;10.71;100.00
53908;BME280;40469;47.998;7.794;2023-02-18T06:07:46;100015.56;;;10.76;100.00
53908;BME280;40469;47.998;7.794;2023-02-18T06:10:11;100019.00;;;10.69;100.00
53908;BME280;40469;47.998;7.794;2023-02-18T06:12:36;100009.44;;;10.68;100.00
53908;BME280;40469;47.998;7.794;2023-02-18T06:15:02;100009.47;;;10.72;100.00
53908;BME280;40469;47.998;7.794;2023-02-18T06:17:27;100006.91;;;10.78;100.00
53908;BME280;40469;47.998;7.794;2023-02-18T06:19:53;100002.50;;;10.76;100.00
53908;BME280;40469;47.998;7.794;2023-02-18T06:22:18;100006.03;;;10.79;100.00
53908;BME280;40469;47.998;7.794;2023-02-18T06:24:43;100004.31;;;10.80;100.00
53908;BME280;40469;47.998;7.794;2023-02-18T06:27:08;99999.97;;;10.84;100.00
53908;BME280;40469;47.998;7.794;2023-02-18T06:29:33;100001.75;;;10.91;100.00
53908;BME280;40469;47.998;7.794;2023-02-18T06:32:00;99995.63;;;10.89;100.00
53908;BME280;40469;47.998;7.794;2023-02-18T06:34:26;100000.00;;;10.90;100.00
53908;BME280;40469;47.998;7.794;2023-02-18T06:36:51;99993.06;;;10.96;100.00
53908;BME280;40469;47.998;7.794;2023-02-18T06:39:17;100001.78;;;11.05;100.00
53908;BME280;40469;47.998;7.794;2023-02-18T06:41:42;100001.81;;;11.08;100.00
53908;BME280;40469;47.998;7.794;2023-02-18T06:44:07;100007.03;;;11.08;100.00
53908;BME280;40469;47.998;7.794;2023-02-18T06:46:33;99995.75;;;11.16;100.00
53908;BME280;40469;47.998;7.794;2023-02-18T06:48:58;99991.41;;;11.17;100.00
53908;BME280;40469;47.998;7.794;2023-02-18T06:51:23;99993.16;;;11.18;100.00
53908;BME280;40469;47.998;7.794;2023-02-18T06:53:48;99998.41;;;11.19;100.00
53908;BME280;40469;47.998;7.794;2023-02-18T06:56:14;99990.56;;;11.19;100.00
53908;BME280;40469;47.998;7.794;2023-02-18T06:58:39;100004.47;;;11.18;100.00
53908;BME280;40469;47.998;7.794;2023-02-18T07:01:04;100000.16;;;11.27;100.00
53908;BME280;40469;47.998;7.794;2023-02-18T07:03:29;100001.03;;;11.24;100.00
53908;BME280;40469;47.998;7.794;2023-02-18T07:05:55;100003.69;;;11.32;100.00
53908;BME280;40469;47.998;7.794;2023-02-18T07:08:20;100002.81;;;11.30;100.00
53908;BME280;40469;47.998;7.794;2023-02-18T07:10:45;100006.28;;;11.30;100.00
53908;BME280;40469;47.998;7.794;2023-02-18T07:13:12;100004.53;;;11.31;100.00
53908;BME280;40469;47.998;7.794;2023-02-18T07:15:37;99994.97;;;11.36;100.00
53908;BME280;40469;47.998;7.794;2023-02-18T07:18:02;100010.66;;;11.37;100.00
53908;BME280;40469;47.998;7.794;2023-02-18T07:20:28;100011.53;;;11.39;100.00
53908;BME280;40469;47.998;7.794;2023-02-18T07:22:53;100003.69;;;11.41;100.00
53908;BME280;40469;47.998;7.794;2023-02-18T07:25:19;100008.91;;;11.38;100.00
53908;BME280;40469;47.998;7.794;2023-02-18T07:27:44;100020.28;;;11.48;100.00
53908;BME280;40469;47.998;7.794;2023-02-18T07:30:09;100022.00;;;11.43;100.00
53908;BME280;40469;47.998;7.794;2023-02-18T07:32:35;100009.78;;;11.42;100.00
53908;BME280;40469;47.998;7.794;2023-02-18T07:35:00;100010.66;;;11.34;100.00
53908;BME280;40469;47.998;7.794;2023-02-18T07:37:25;100008.94;;;11.43;100.00
53908;BME280;40469;47.998;7.794;2023-02-18T07:39:50;99999.38;;;11.51;100.00
53908;BME280;40469;47.998;7.794;2023-02-18T07:42:16;100014.22;;;11.56;100.00
53908;BME280;40469;47.998;7.794;2023-02-18T07:44:41;100022.94;;;11.58;100.00
53908;BME280;40469;47.998;7.794;2023-02-18T07:47:07;100007.22;;;11.54;100.00
53908;BME280;40469;47.998;7.794;2023-02-18T07:49:33;100027.31;;;11.60;100.00
53908;BME280;40469;47.998;7.794;2023-02-18T07:51:58;100005.53;;;11.65;100.00
53908;BME280;40469;47.998;7.794;2023-02-18T07:54:24;100009.91;;;11.65;100.00
53908;BME280;40469;47.998;7.794;2023-02-18T07:56:49;100009.00;;;11.63;100.00
53908;BME280;40469;47.998;7.794;2023-02-18T07:59:14;100014.25;;;11.66;100.00
53908;BME280;40469;47.998;7.794;2023-02-18T08:01:40;100004.66;;;11.71;100.00
53908;BME280;40469;47.998;7.794;2023-02-18T08:04:05;100003.84;;;11.84;100.00
53908;BME280;40469;47.998;7.794;2023-02-18T08:06:35;100002.94;;;11.84;100.00
53908;BME280;40469;47.998;7.794;2023-02-18T08:09:01;100005.53;;;11.82;100.00
53908;BME280;40469;47.998;7.794;2023-02-18T08:11:26;100009.03;;;11.80;100.00
53908;BME280;40469;47.998;7.794;2023-02-18T08:13:52;99997.72;;;11.85;100.00
53908;BME280;40469;47.998;7.794;2023-02-18T08:16:17;100007.28;;;11.79;100.00
53908;BME280;40469;47.998;7.794;2023-02-18T08:18:43;100008.19;;;11.85;100.00
53908;BME280;40469;47.998;7.794;2023-02-18T08:21:08;100003.88;;;11.93;100.00
53908;BME280;40469;47.998;7.794;2023-02-18T08:23:33;99993.34;;;11.76;100.00
53908;BME280;40469;47.998;7.794;2023-02-18T08:25:59;99999.47;;;11.85;100.00
53908;BME280;40469;47.998;7.794;2023-02-18T08:28:24;100009.06;;;11.89;100.00
53908;BME280;40469;47.998;7.794;2023-02-18T08:30:50;99991.59;;;11.82;100.00
53908;BME280;40469;47.998;7.794;2023-02-18T08:33:16;100002.94;;;11.88;100.00
53908;BME280;40469;47.998;7.794;2023-02-18T08:35:42;100000.31;;;11.85;100.00
53908;BME280;40469;47.998;7.794;2023-02-18T08:38:07;100005.56;;;11.84;100.00
53908;BME280;40469;47.998;7.794;2023-02-18T08:40:32;100002.97;;;11.90;100.00
53908;BME280;40469;47.998;7.794;2023-02-18T08:42:57;100001.19;;;11.89;100.00
53908;BME280;40469;47.998;7.794;2023-02-18T08:45:23;100000.38;;;11.96;100.00
53908;BME280;40469;47.998;7.794;2023-02-18T08:47:48;99993.38;;;11.98;100.00
53908;BME280;40469;47.998;7.794;2023-02-18T08:50:13;99997.75;;;11.99;100.00
53908;BME280;40469;47.998;7.794;2023-02-18T08:52:38;100004.72;;;11.92;100.00
53908;BME280;40469;47.998;7.794;2023-02-18T08:55:04;100008.22;;;11.94;100.00
53908;BME280;40469;47.998;7.794;2023-02-18T08:57:29;99997.75;;;11.94;100.00
53908;BME280;40469;47.998;7.794;2023-02-18T08:59:54;99997.75;;;11.91;100.00
53908;BME280;40469;47.998;7.794;2023-02-18T09:02:19;99997.72;;;11.90;100.00
53908;BME280;40469;47.998;7.794;2023-02-18T09:04:45;100003.88;;;11.95;100.00
53908;BME280;40469;47.998;7.794;2023-02-18T09:07:10;100008.22;;;11.99;100.00
53908;BME280;40469;47.998;7.794;2023-02-18T09:09:35;100007.38;;;11.99;100.00
53908;BME280;40469;47.998;7.794;2023-02-18T09:12:00;100005.63;;;12.14;100.00
53908;BME280;40469;47.998;7.794;2023-02-18T09:14:26;100015.25;;;12.12;100.00
53908;BME280;40469;47.998;7.794;2023-02-18T09:16:51;100007.38;;;12.29;100.00
53908;BME280;40469;47.998;7.794;2023-02-18T09:19:16;100009.13;;;12.37;100.00
53908;BME280;40469;47.998;7.794;2023-02-18T09:21:42;100007.41;;;12.25;100.00
53908;BME280;40469;47.998;7.794;2023-02-18T09:24:07;100011.75;;;12.26;100.00
53908;BME280;40469;47.998;7.794;2023-02-18T09:26:33;100019.63;;;12.32;100.00
53908;BME280;40469;47.998;7.794;2023-02-18T09:28:58;100018.72;;;12.25;100.00
53908;BME280;40469;47.998;7.794;2023-02-18T09:31:24;100015.25;;;12.25;100.00
53908;BME280;40469;47.998;7.794;2023-02-18T09:34:00;100017.84;;;12.32;100.00
53908;BME280;40469;47.998;7.794;2023-02-18T09:36:25;100014.34;;;12.26;100.00
53908;BME280;40469;47.998;7.794;2023-02-18T09:38:51;100018.72;;;12.30;100.00
53908;BME280;40469;47.998;7.794;2023-02-18T09:41:26;100020.47;;;12.20;100.00
53908;BME280;40469;47.998;7.794;2023-02-18T09:43:55;100012.59;;;12.29;100.00
53908;BME280;40469;47.998;7.794;2023-02-18T09:46:22;100010.00;;;12.34;100.00
53908;BME280;40469;47.998;7.794;2023-02-18T09:48:49;100001.25;;;12.61;100.00
53908;BME280;40469;47.998;7.794;2023-02-18T09:51:16;99999.50;;;12.62;100.00
53908;BME280;40469;47.998;7.794;2023-02-18T09:53:42;100007.38;;;12.42;100.00
53908;BME280;40469;47.998;7.794;2023-02-18T09:56:11;99999.53;;;12.29;100.00
53908;BME280;40469;47.998;7.794;2023-02-18T09:58:37;100002.16;;;12.36;100.00
53908;BME280;40469;47.998;7.794;2023-02-18T10:01:04;100011.72;;;12.47;100.00
53908;BME280;40469;47.998;7.794;2023-02-18T10:03:30;100005.59;;;12.58;100.00
53908;BME280;40469;47.998;7.794;2023-02-18T10:08:32;100001.25;;;12.35;100.00
53908;BME280;40469;47.998;7.794;2023-02-18T10:10:58;99985.53;;;12.57;100.00
53908;BME280;40469;47.998;7.794;2023-02-18T10:13:25;100002.13;;;12.60;100.00
53908;BME280;40469;47.998;7.794;2023-02-18T10:15:52;99992.50;;;12.58;100.00
53908;BME280;40469;47.998;7.794;2023-02-18T10:20:50;99996.84;;;12.83;100.00
53908;BME280;40469;47.998;7.794;2023-02-18T10:23:16;99992.44;;;12.92;100.00
53908;BME280;40469;47.998;7.794;2023-02-18T10:25:44;100004.69;;;12.86;100.00
53908;BME280;40469;47.998;7.794;2023-02-18T10:28:10;99982.75;;;13.17;100.00
53908;BME280;40469;47.998;7.794;2023-02-18T10:30:42;99979.84;;;13.75;100.00
53908;BME280;40469;47.998;7.794;2023-02-18T10:33:26;99988.72;;;13.57;100.00
53908;BME280;40469;47.998;7.794;2023-02-18T10:36:23;99981.81;;;13.28;100.00
53908;BME280;40469;47.998;7.794;2023-02-18T10:44:11;99969.72;;;14.40;100.00
53908;BME280;40469;47.998;7.794;2023-02-18T10:46:47;99968.16;;;14.19;100.00
53908;BME280;40469;47.998;7.794;2023-02-18T10:51:50;99987.75;;;13.71;100.00
53908;BME280;40469;47.998;7.794;2023-02-18T10:54:16;99966.03;;;13.50;100.00
53908;BME280;40469;47.998;7.794;2023-02-18T10:56:49;99970.34;;;13.56;100.00
53908;BME280;40469;47.998;7.794;2023-02-18T10:59:21;99972.91;;;13.67;100.00
53908;BME280;40469;47.998;7.794;2023-02-18T11:01:54;99974.59;;;13.78;100.00
53908;BME280;40469;47.998;7.794;2023-02-18T11:04:22;99964.94;;;13.82;100.00
53908;BME280;40469;47.998;7.794;2023-02-18T11:06:48;99968.47;;;13.76;100.00
53908;BME280;40469;47.998;7.794;2023-02-18T11:11:49;99969.13;;;14.04;100.00
53908;BME280;40469;47.998;7.794;2023-02-18T11:14:14;99975.47;;;13.79;100.00
53908;BME280;40469;47.998;7.794;2023-02-18T11:16:43;99958.09;;;13.59;100.00
53908;BME280;40469;47.998;7.794;2023-02-18T11:21:52;99963.25;;;13.72;100.00
53908;BME280;40469;47.998;7.794;2023-02-18T11:24:30;99966.56;;;13.97;100.00
53908;BME280;40469;47.998;7.794;2023-02-18T11:26:55;99959.63;;;13.90;100.00
53908;BME280;40469;47.998;7.794;2023-02-18T11:29:21;99973.78;;;13.64;100.00
53908;BME280;40469;47.998;7.794;2023-02-18T11:31:52;99975.59;;;13.56;100.00
53908;BME280;40469;47.998;7.794;2023-02-18T11:34:21;99966.84;;;13.55;100.00
53908;BME280;40469;47.998;7.794;2023-02-18T11:36:47;99961.69;;;13.40;100.00
53908;BME280;40469;47.998;7.794;2023-02-18T11:39:20;99965.19;;;13.37;100.00
53908;BME280;40469;47.998;7.794;2023-02-18T11:44:28;99964.28;;;13.46;100.00
53908;BME280;40469;47.998;7.794;2023-02-18T11:49:23;99965.22;;;13.25;100.00
53908;BME280;40469;47.998;7.794;2023-02-18T11:51:49;99954.78;;;13.11;100.00
53908;BME280;40469;47.998;7.794;2023-02-18T11:54:27;99947.81;;;13.05;100.00
53908;BME280;40469;47.998;7.794;2023-02-18T11:57:01;99951.31;;;13.07;100.00
53908;BME280;40469;47.998;7.794;2023-02-18T11:59:27;99934.69;;;13.15;100.00
53908;BME280;40469;47.998;7.794;2023-02-18T12:01:54;99931.19;;;13.17;100.00
53908;BME280;40469;47.998;7.794;2023-02-18T12:04:32;99928.53;;;13.20;100.00
53908;BME280;40469;47.998;7.794;2023-02-18T12:09:36;99926.00;;;13.05;100.00
53908;BME280;40469;47.998;7.794;2023-02-18T12:12:05;99927.75;;;13.04;100.00
53908;BME280;40469;47.998;7.794;2023-02-18T12:14:31;99918.97;;;13.08;100.00
53908;BME280;40469;47.998;7.794;2023-02-18T12:17:12;99918.06;;;13.13;100.00
53908;BME280;40469;47.998;7.794;2023-02-18T12:19:44;99907.56;;;13.22;100.00
53908;BME280;40469;47.998;7.794;2023-02-18T12:22:21;99913.69;;;13.18;100.00
53908;BME280;40469;47.998;7.794;2023-02-18T12:27:19;99916.34;;;13.12;100.00
53908;BME280;40469;47.998;7.794;2023-02-18T12:30:17;99911.03;;;13.22;100.00
53908;BME280;40469;47.998;7.794;2023-02-18T12:37:45;99891.81;;;13.31;100.00
53908;BME280;40469;47.998;7.794;2023-02-18T12:43:06;99873.28;;;13.56;100.00
53908;BME280;40469;47.998;7.794;2023-02-18T12:45:44;99877.28;;;13.98;100.00
53908;BME280;40469;47.998;7.794;2023-02-18T12:48:30;99894.97;;;13.76;100.00
53908;BME280;40469;47.998;7.794;2023-02-18T12:53:37;99877.19;;;14.09;100.00
53908;BME280;40469;47.998;7.794;2023-02-18T12:58:45;99877.28;;;13.98;100.00
53908;BME280;40469;47.998;7.794;2023-02-18T13:09:30;99883.53;;;13.83;100.00
53908;BME280;40469;47.998;7.794;2023-02-18T13:17:39;99863.50;;;13.75;100.00
53908;BME280;40469;47.998;7.794;2023-02-18T13:20:12;99843.50;;;13.60;100.00
53908;BME280;40469;47.998;7.794;2023-02-18T13:22:38;99874.13;;;13.58;100.00
53908;BME280;40469;47.998;7.794;2023-02-18T13:25:03;99870.66;;;13.54;100.00
53908;BME280;40469;47.998;7.794;2023-02-18T13:27:32;99854.94;;;13.48;100.00
53908;BME280;40469;47.998;7.794;2023-02-18T13:40:03;99847.91;;;13.52;100.00
53908;BME280;40469;47.998;7.794;2023-02-18T13:42:34;99830.44;;;13.52;100.00
53908;BME280;40469;47.998;7.794;2023-02-18T13:45:01;99821.59;;;13.64;100.00
53908;BME280;40469;47.998;7.794;2023-02-18T13:47:43;99819.81;;;13.68;100.00
53908;BME280;40469;47.998;7.794;2023-02-18T13:50:15;99823.31;;;13.71;100.00
53908;BME280;40469;47.998;7.794;2023-02-18T13:52:40;99822.50;;;13.61;100.00
53908;BME280;40469;47.998;7.794;2023-02-18T13:55:15;99815.53;;;13.59;100.00
53908;BME280;40469;47.998;7.794;2023-02-18T13:57:42;99836.47;;;13.60;100.00
53908;BME280;40469;47.998;7.794;2023-02-18T14:00:21;99840.78;;;13.69;100.00
53908;BME280;40469;47.998;7.794;2023-02-18T14:02:57;99817.25;;;13.63;100.00
53908;BME280;40469;47.998;7.794;2023-02-18T14:05:23;99808.44;;;13.67;100.00
53908;BME280;40469;47.998;7.794;2023-02-18T14:07:51;99815.44;;;13.71;100.00
53908;BME280;40469;47.998;7.794;2023-02-18T14:10:30;99803.81;;;13.92;100.00
53908;BME280;40469;47.998;7.794;2023-02-18T14:22:56;99796.16;;;13.72;100.00
53908;BME280;40469;47.998;7.794;2023-02-18T14:25:33;99790.88;;;13.75;100.00
53908;BME280;40469;47.998;7.794;2023-02-18T14:28:01;99791.53;;;13.97;100.00
53908;BME280;40469;47.998;7.794;2023-02-18T14:30:35;99788.72;;;14.14;100.00